sensor_id;sensor_type;location;lat;lon;timestamp;pressure;altitude;pressure_sealevel;temperature;humidity
43820;BME280;67762;52.476;6.046;2023-04-20T00:02:01;102396.56;;;6.17;49.87
43820;BME280;67762;52.476;6.046;2023-04-20T00:04:28;102392.31;;;6.00;50.42
43820;BME280;67762;52.476;6.046;2023-04-20T00:06:54;102385.25;;;5.86;50.57
43820;BME280;67762;52.476;6.046;2023-04-20T00:09:21;102389.69;;;5.72;51.33
43820;BME280;67762;52.476;6.046;2023-04-20T00:11:48;102376.53;;;5.56;51.12
43820;BME280;67762;52.476;6.046;2023-04-20T00:14:14;102376.06;;;5.50;51.48
43820;BME280;67762;52.476;6.046;2023-04-20T00:16:40;102369.81;;;5.51;52.03
43820;BME280;67762;52.476;6.046;2023-04-20T00:19:06;102367.66;;;5.57;52.51
43820;BME280;67762;52.476;6.046;2023-04-20T00:21:33;102361.00;;;5.64;52.66
43820;BME280;67762;52.476;6.046;2023-04-20T00:23:58;102361.31;;;5.74;53.02
43820;BME280;67762;52.476;6.046;2023-04-20T00:26:24;102352.78;;;5.83;53.09
43820;BME280;67762;52.476;6.046;2023-04-20T00:28:52;102338.56;;;5.84;53.39
43820;BME280;67762;52.476;6.046;2023-04-20T00:31:19;102346.06;;;5.92;53.43
43820;BME280;67762;52.476;6.046;2023-04-20T00:33:46;102346.69;;;6.09;53.64
43820;BME280;67762;52.476;6.046;2023-04-20T00:36:12;102339.66;;;6.22;53.58
43820;BME280;67762;52.476;6.046;2023-04-20T00:38:38;102348.63;;;6.34;53.77
43820;BME280;67762;52.476;6.046;2023-04-20T00:41:03;102334.38;;;6.49;54.75
43820;BME280;67762;52.476;6.046;2023-04-20T00:43:30;102329.19;;;6.60;54.13
43820;BME280;67762;52.476;6.046;2023-04-20T00:45:55;102338.56;;;6.66;54.20
43820;BME280;67762;52.476;6.046;2023-04-20T00:48:21;102327.53;;;6.72;54.87
43820;BME280;67762;52.476;6.046;2023-04-20T00:50:48;102319.47;;;6.73;54.44
43820;BME280;67762;52.476;6.046;2023-04-20T00:53:15;102318.53;;;6.74;55.21
43820;BME280;67762;52.476;6.046;2023-04-20T00:55:42;102308.00;;;6.73;55.13
43820;BME280;67762;52.476;6.046;2023-04-20T00:58:11;102320.41;;;6.72;55.16
43820;BME280;67762;52.476;6.046;2023-04-20T01:00:37;102303.75;;;6.70;55.79
43820;BME280;67762;52.476;6.046;2023-04-20T01:03:06;102297.91;;;6.65;56.00
43820;BME280;67762;52.476;6.046;2023-04-20T01:05:32;102309.66;;;6.61;55.88
43820;BME280;67762;52.476;6.046;2023-04-20T01:07:58;102302.88;;;6.57;56.15
43820;BME280;67762;52.476;6.046;2023-04-20T01:10:23;102293.41;;;6.53;56.70
43820;BME280;67762;52.476;6.046;2023-04-20T01:12:50;102293.22;;;6.56;56.59
43820;BME280;67762;52.476;6.046;2023-04-20T01:15:15;102279.44;;;6.64;56.71
43820;BME280;67762;52.476;6.046;2023-04-20T01:17:41;102269.25;;;6.70;57.57
43820;BME280;67762;52.476;6.046;2023-04-20T01:20:09;102266.09;;;6.78;57.51
43820;BME280;67762;52.476;6.046;2023-04-20T01:22:46;102261.00;;;6.87;58.05
43820;BME280;67762;52.476;6.046;2023-04-20T01:25:12;102257.72;;;6.96;57.79
43820;BME280;67762;52.476;6.046;2023-04-20T01:27:38;102254.41;;;7.05;57.87
43820;BME280;67762;52.476;6.046;2023-04-20T01:30:05;102252.19;;;7.12;58.00
43820;BME280;67762;52.476;6.046;2023-04-20T01:32:31;102258.25;;;7.14;58.40
43820;BME280;67762;52.476;6.046;2023-04-20T01:34:58;102247.41;;;7.17;58.43
43820;BME280;67762;52.476;6.046;2023-04-20T01:37:23;102245.81;;;7.15;57.98
43820;BME280;67762;52.476;6.046;2023-04-20T01:39:49;102239.03;;;7.11;58.69
43820;BME280;67762;52.476;6.046;2023-04-20T01:42:15;102235.53;;;7.10;58.46
43820;BME280;67762;52.476;6.046;2023-04-20T01:44:41;102238.50;;;7.05;58.42
43820;BME280;67762;52.476;6.046;2023-04-20T01:47:06;102226.28;;;7.03;58.58
43820;BME280;67762;52.476;6.046;2023-04-20T01:49:32;102228.09;;;7.02;59.60
43820;BME280;67762;52.476;6.046;2023-04-20T01:51:57;102224.59;;;7.02;59.25
43820;BME280;67762;52.476;6.046;2023-04-20T01:54:23;102217.16;;;6.94;60.11
43820;BME280;67762;52.476;6.046;2023-04-20T01:56:49;102213.25;;;6.87;59.75
43820;BME280;67762;52.476;6.046;2023-04-20T01:59:14;102203.91;;;6.82;60.58
43820;BME280;67762;52.476;6.046;2023-04-20T02:01:40;102202.31;;;6.79;60.55
43820;BME280;67762;52.476;6.046;2023-04-20T02:04:05;102197.97;;;6.78;61.69
43820;BME280;67762;52.476;6.046;2023-04-20T02:06:31;102196.38;;;6.76;61.67
43820;BME280;67762;52.476;6.046;2023-04-20T02:08:58;102192.88;;;6.75;61.38
43820;BME280;67762;52.476;6.046;2023-04-20T02:11:24;102184.91;;;6.75;62.60
43820;BME280;67762;52.476;6.046;2023-04-20T02:13:50;102173.44;;;6.75;62.04
43820;BME280;67762;52.476;6.046;2023-04-20T02:16:16;102172.63;;;6.74;62.45
43820;BME280;67762;52.476;6.046;2023-04-20T02:18:43;102170.78;;;6.75;62.62
43820;BME280;67762;52.476;6.046;2023-04-20T02:21:10;102162.00;;;6.74;63.14
43820;BME280;67762;52.476;6.046;2023-04-20T02:23:36;102156.59;;;6.76;63.36
43820;BME280;67762;52.476;6.046;2023-04-20T02:26:02;102158.38;;;6.75;63.64
43820;BME280;67762;52.476;6.046;2023-04-20T02:28:27;102162.84;;;6.75;63.06
43820;BME280;67762;52.476;6.046;2023-04-20T02:30:53;102159.16;;;6.77;63.21
43820;BME280;67762;52.476;6.046;2023-04-20T02:33:19;102158.09;;;6.80;64.08
43820;BME280;67762;52.476;6.046;2023-04-20T02:35:46;102146.41;;;6.82;64.10
43820;BME280;67762;52.476;6.046;2023-04-20T02:38:12;102147.88;;;6.86;64.09
43820;BME280;67762;52.476;6.046;2023-04-20T02:40:38;102145.13;;;6.88;63.63
43820;BME280;67762;52.476;6.046;2023-04-20T02:43:04;102152.75;;;6.92;64.29
43820;BME280;67762;52.476;6.046;2023-04-20T02:45:31;102144.56;;;6.95;63.95
43820;BME280;67762;52.476;6.046;2023-04-20T02:47:58;102145.22;;;6.99;63.53
43820;BME280;67762;52.476;6.046;2023-04-20T02:50:26;102145.59;;;7.05;63.86
43820;BME280;67762;52.476;6.046;2023-04-20T02:53:14;102138.78;;;7.14;64.10
43820;BME280;67762;52.476;6.046;2023-04-20T02:55:40;102134.13;;;7.18;64.22
43820;BME280;67762;52.476;6.046;2023-04-20T02:58:26;102143.09;;;7.28;63.20
43820;BME280;67762;52.476;6.046;2023-04-20T03:01:12;102133.41;;;7.39;63.42
43820;BME280;67762;52.476;6.046;2023-04-20T03:03:38;102133.59;;;7.49;62.19
43820;BME280;67762;52.476;6.046;2023-04-20T03:06:07;102135.53;;;7.58;61.69
43820;BME280;67762;52.476;6.046;2023-04-20T03:08:33;102128.94;;;7.63;62.39
43820;BME280;67762;52.476;6.046;2023-04-20T03:11:09;102124.97;;;7.69;61.76
43820;BME280;67762;52.476;6.046;2023-04-20T03:13:35;102127.41;;;7.72;60.93
43820;BME280;67762;52.476;6.046;2023-04-20T03:16:01;102129.97;;;7.74;60.88
43820;BME280;67762;52.476;6.046;2023-04-20T03:18:34;102113.91;;;7.75;60.59
43820;BME280;67762;52.476;6.046;2023-04-20T03:20:59;102114.03;;;7.74;60.59
43820;BME280;67762;52.476;6.046;2023-04-20T03:23:27;102104.34;;;7.73;61.12
43820;BME280;67762;52.476;6.046;2023-04-20T03:25:54;102108.09;;;7.70;61.31
43820;BME280;67762;52.476;6.046;2023-04-20T03:28:35;102104.94;;;7.65;62.09
43820;BME280;67762;52.476;6.046;2023-04-20T03:31:01;102094.66;;;7.60;62.04
43820;BME280;67762;52.476;6.046;2023-04-20T03:33:29;102099.97;;;7.60;62.46
43820;BME280;67762;52.476;6.046;2023-04-20T03:35:55;102092.72;;;7.62;62.58
43820;BME280;67762;52.476;6.046;2023-04-20T03:38:20;102091.66;;;7.65;61.86
43820;BME280;67762;52.476;6.046;2023-04-20T03:40:47;102088.75;;;7.68;63.33
43820;BME280;67762;52.476;6.046;2023-04-20T03:43:14;102089.50;;;7.70;63.23
43820;BME280;67762;52.476;6.046;2023-04-20T03:45:41;102074.28;;;7.72;62.76
43820;BME280;67762;52.476;6.046;2023-04-20T03:48:07;102078.41;;;7.76;63.62
43820;BME280;67762;52.476;6.046;2023-04-20T03:50:33;102074.66;;;7.79;63.50
43820;BME280;67762;52.476;6.046;2023-04-20T03:52:59;102070.06;;;7.81;63.01
43820;BME280;67762;52.476;6.046;2023-04-20T03:55:24;102066.34;;;7.83;62.76
43820;BME280;67762;52.476;6.046;2023-04-20T03:57:57;102064.31;;;7.87;63.07
43820;BME280;67762;52.476;6.046;2023-04-20T04:00:24;102071.31;;;7.88;62.77
43820;BME280;67762;52.476;6.046;2023-04-20T04:02:57;102073.00;;;7.89;63.19
43820;BME280;67762;52.476;6.046;2023-04-20T04:05:26;102070.97;;;7.92;63.30
43820;BME280;67762;52.476;6.046;2023-04-20T04:07:52;102068.53;;;7.89;63.22
43820;BME280;67762;52.476;6.046;2023-04-20T04:10:18;102074.47;;;7.93;61.77
43820;BME280;67762;52.476;6.046;2023-04-20T04:12:44;102075.19;;;7.95;62.26
43820;BME280;67762;52.476;6.046;2023-04-20T04:15:10;102065.38;;;7.84;62.88
43820;BME280;67762;52.476;6.046;2023-04-20T04:17:44;102066.31;;;7.72;62.89
43820;BME280;67762;52.476;6.046;2023-04-20T04:20:10;102064.63;;;7.71;63.68
43820;BME280;67762;52.476;6.046;2023-04-20T04:22:36;102059.81;;;7.76;63.16
43820;BME280;67762;52.476;6.046;2023-04-20T04:25:26;102057.38;;;7.73;63.12
43820;BME280;67762;52.476;6.046;2023-04-20T04:27:53;102062.06;;;7.70;63.88
43820;BME280;67762;52.476;6.046;2023-04-20T04:30:19;102049.41;;;7.73;63.87
43820;BME280;67762;52.476;6.046;2023-04-20T04:32:45;102052.56;;;7.78;63.07
43820;BME280;67762;52.476;6.046;2023-04-20T04:35:12;102041.59;;;7.83;63.27
43820;BME280;67762;52.476;6.046;2023-04-20T04:37:38;102042.94;;;7.88;63.62
43820;BME280;67762;52.476;6.046;2023-04-20T04:40:05;102041.72;;;7.92;62.05
43820;BME280;67762;52.476;6.046;2023-04-20T04:42:34;102037.66;;;7.99;62.81
43820;BME280;67762;52.476;6.046;2023-04-20T04:45:02;102035.47;;;8.04;62.07
43820;BME280;67762;52.476;6.046;2023-04-20T04:47:34;102036.81;;;8.10;61.05
43820;BME280;67762;52.476;6.046;2023-04-20T04:50:03;102038.16;;;8.15;60.71
43820;BME280;67762;52.476;6.046;2023-04-20T04:52:29;102038.63;;;8.20;59.18
43820;BME280;67762;52.476;6.046;2023-04-20T04:54:55;102037.69;;;8.21;59.78
43820;BME280;67762;52.476;6.046;2023-04-20T04:57:21;102038.41;;;8.23;58.77
43820;BME280;67762;52.476;6.046;2023-04-20T04:59:46;102047.22;;;8.24;58.82
43820;BME280;67762;52.476;6.046;2023-04-20T05:02:12;102047.59;;;8.31;58.91
43820;BME280;67762;52.476;6.046;2023-04-20T05:04:38;102041.94;;;8.35;57.17
43820;BME280;67762;52.476;6.046;2023-04-20T05:07:04;102047.75;;;8.40;56.82
43820;BME280;67762;52.476;6.046;2023-04-20T05:09:29;102028.75;;;8.45;56.07
43820;BME280;67762;52.476;6.046;2023-04-20T05:12:01;102033.13;;;8.46;56.14
43820;BME280;67762;52.476;6.046;2023-04-20T05:14:31;102035.66;;;8.47;56.08
43820;BME280;67762;52.476;6.046;2023-04-20T05:16:58;102024.03;;;8.48;55.48
43820;BME280;67762;52.476;6.046;2023-04-20T05:19:24;102036.50;;;8.48;55.70
43820;BME280;67762;52.476;6.046;2023-04-20T05:21:50;102035.53;;;8.49;55.54
43820;BME280;67762;52.476;6.046;2023-04-20T05:24:16;102034.69;;;8.48;55.66
43820;BME280;67762;52.476;6.046;2023-04-20T05:26:44;102040.84;;;8.49;55.58
43820;BME280;67762;52.476;6.046;2023-04-20T05:29:11;102045.31;;;8.48;56.22
43820;BME280;67762;52.476;6.046;2023-04-20T05:31:37;102040.84;;;8.49;55.41
43820;BME280;67762;52.476;6.046;2023-04-20T05:34:03;102043.53;;;8.49;55.65
43820;BME280;67762;52.476;6.046;2023-04-20T05:36:28;102053.16;;;8.50;55.62
43820;BME280;67762;52.476;6.046;2023-04-20T05:38:55;102054.03;;;8.50;55.81
43820;BME280;67762;52.476;6.046;2023-04-20T05:41:21;102051.50;;;8.49;56.17
43820;BME280;67762;52.476;6.046;2023-04-20T05:43:52;102038.31;;;8.47;56.61
43820;BME280;67762;52.476;6.046;2023-04-20T05:46:19;102047.50;;;8.43;56.85
43820;BME280;67762;52.476;6.046;2023-04-20T05:48:46;102051.25;;;8.41;57.06
43820;BME280;67762;52.476;6.046;2023-04-20T05:51:12;102040.16;;;8.36;56.69
43820;BME280;67762;52.476;6.046;2023-04-20T05:53:38;102047.50;;;8.32;57.10
43820;BME280;67762;52.476;6.046;2023-04-20T05:56:05;102040.09;;;8.24;57.38
43820;BME280;67762;52.476;6.046;2023-04-20T05:58:32;102041.91;;;8.13;57.44
43820;BME280;67762;52.476;6.046;2023-04-20T06:00:58;102041.66;;;8.05;58.06
43820;BME280;67762;52.476;6.046;2023-04-20T06:03:24;102048.94;;;7.79;59.22
43820;BME280;67762;52.476;6.046;2023-04-20T06:05:49;102035.31;;;7.49;60.11
43820;BME280;67762;52.476;6.046;2023-04-20T06:08:15;102052.78;;;7.17;61.37
43820;BME280;67762;52.476;6.046;2023-04-20T06:10:41;102045.88;;;6.90;62.26
43820;BME280;67762;52.476;6.046;2023-04-20T06:13:07;102050.59;;;6.74;63.24
43820;BME280;67762;52.476;6.046;2023-04-20T06:15:33;102048.81;;;6.62;63.45
43820;BME280;67762;52.476;6.046;2023-04-20T06:17:58;102055.72;;;6.52;64.23
43820;BME280;67762;52.476;6.046;2023-04-20T06:20:26;102059.97;;;6.42;65.10
43820;BME280;67762;52.476;6.046;2023-04-20T06:22:52;102070.16;;;6.35;66.00
43820;BME280;67762;52.476;6.046;2023-04-20T06:25:18;102075.97;;;6.28;66.82
43820;BME280;67762;52.476;6.046;2023-04-20T06:27:44;102066.78;;;6.21;67.57
43820;BME280;67762;52.476;6.046;2023-04-20T06:30:10;102066.75;;;6.08;68.48
43820;BME280;67762;52.476;6.046;2023-04-20T06:32:36;102052.25;;;6.01;68.89
43820;BME280;67762;52.476;6.046;2023-04-20T06:35:02;102060.59;;;5.95;69.59
43820;BME280;67762;52.476;6.046;2023-04-20T06:37:28;102054.44;;;5.95;69.33
43820;BME280;67762;52.476;6.046;2023-04-20T06:39:54;102045.69;;;5.94;69.42
43820;BME280;67762;52.476;6.046;2023-04-20T06:42:21;102059.22;;;5.89;69.80
43820;BME280;67762;52.476;6.046;2023-04-20T06:44:46;102050.84;;;5.83;69.96
43820;BME280;67762;52.476;6.046;2023-04-20T06:47:12;102052.72;;;5.81;70.65
43820;BME280;67762;52.476;6.046;2023-04-20T06:49:38;102052.72;;;5.81;70.56
43820;BME280;67762;52.476;6.046;2023-04-20T06:52:06;102054.13;;;5.86;70.64
43820;BME280;67762;52.476;6.046;2023-04-20T06:54:32;102049.34;;;5.92;71.14
43820;BME280;67762;52.476;6.046;2023-04-20T06:56:57;102056.81;;;5.99;71.28
43820;BME280;67762;52.476;6.046;2023-04-20T06:59:23;102067.00;;;6.05;71.03
43820;BME280;67762;52.476;6.046;2023-04-20T07:01:49;102056.91;;;6.10;71.33
43820;BME280;67762;52.476;6.046;2023-04-20T07:04:14;102033.25;;;6.20;71.53
43820;BME280;67762;52.476;6.046;2023-04-20T07:06:40;102056.69;;;6.26;71.16
43820;BME280;67762;52.476;6.046;2023-04-20T07:09:06;102036.53;;;6.36;71.36
43820;BME280;67762;52.476;6.046;2023-04-20T07:11:32;102054.75;;;6.53;71.97
43820;BME280;67762;52.476;6.046;2023-04-20T07:13:58;102060.56;;;6.58;71.56
43820;BME280;67762;52.476;6.046;2023-04-20T07:16:24;102069.38;;;6.59;71.47
43820;BME280;67762;52.476;6.046;2023-04-20T07:18:50;102070.56;;;6.55;72.12
43820;BME280;67762;52.476;6.046;2023-04-20T07:21:16;102071.53;;;6.54;71.75
43820;BME280;67762;52.476;6.046;2023-04-20T07:23:41;102068.44;;;6.47;72.07
43820;BME280;67762;52.476;6.046;2023-04-20T07:26:08;102078.53;;;6.42;72.20
43820;BME280;67762;52.476;6.046;2023-04-20T07:28:33;102066.97;;;6.43;72.56
43820;BME280;67762;52.476;6.046;2023-04-20T07:30:59;102072.28;;;6.43;72.49
43820;BME280;67762;52.476;6.046;2023-04-20T07:33:26;102061.47;;;6.46;72.44
43820;BME280;67762;52.476;6.046;2023-04-20T07:35:54;102055.63;;;6.41;72.61
43820;BME280;67762;52.476;6.046;2023-04-20T07:38:19;102059.97;;;6.42;72.58
43820;BME280;67762;52.476;6.046;2023-04-20T07:40:45;102051.81;;;6.45;72.88
43820;BME280;67762;52.476;6.046;2023-04-20T07:43:11;102048.00;;;6.49;72.29
43820;BME280;67762;52.476;6.046;2023-04-20T07:45:40;102042.25;;;6.55;72.41
43820;BME280;67762;52.476;6.046;2023-04-20T07:48:06;102038.53;;;6.58;72.18
43820;BME280;67762;52.476;6.046;2023-04-20T07:50:34;102038.84;;;6.66;72.18
43820;BME280;67762;52.476;6.046;2023-04-20T07:53:01;102040.81;;;6.75;72.02
43820;BME280;67762;52.476;6.046;2023-04-20T07:55:27;102034.13;;;6.82;72.90
43820;BME280;67762;52.476;6.046;2023-04-20T07:57:52;102043.66;;;6.84;72.76
43820;BME280;67762;52.476;6.046;2023-04-20T08:00:18;102045.03;;;6.90;72.15
43820;BME280;67762;52.476;6.046;2023-04-20T08:02:45;102045.66;;;6.93;73.07
43820;BME280;67762;52.476;6.046;2023-04-20T08:05:10;102052.25;;;6.88;72.72
43820;BME280;67762;52.476;6.046;2023-04-20T08:07:36;102041.00;;;6.84;72.16
43820;BME280;67762;52.476;6.046;2023-04-20T08:10:03;102049.25;;;6.92;72.71
43820;BME280;67762;52.476;6.046;2023-04-20T08:12:29;102043.94;;;7.05;72.49
43820;BME280;67762;52.476;6.046;2023-04-20T08:14:55;102047.47;;;7.17;72.72
43820;BME280;67762;52.476;6.046;2023-04-20T08:17:25;102038.19;;;7.22;72.34
43820;BME280;67762;52.476;6.046;2023-04-20T08:19:51;102025.91;;;7.21;72.22
43820;BME280;67762;52.476;6.046;2023-04-20T08:22:16;102039.41;;;7.18;72.54
43820;BME280;67762;52.476;6.046;2023-04-20T08:24:42;102046.38;;;7.19;71.94
43820;BME280;67762;52.476;6.046;2023-04-20T08:27:08;102025.78;;;7.23;71.81
43820;BME280;67762;52.476;6.046;2023-04-20T08:29:33;102036.75;;;7.18;72.23
43820;BME280;67762;52.476;6.046;2023-04-20T08:31:59;102042.44;;;7.25;72.37
43820;BME280;67762;52.476;6.046;2023-04-20T08:34:25;102051.38;;;7.24;72.16
43820;BME280;67762;52.476;6.046;2023-04-20T08:36:50;102046.34;;;7.32;71.53
43820;BME280;67762;52.476;6.046;2023-04-20T08:39:20;102036.34;;;7.35;71.20
43820;BME280;67762;52.476;6.046;2023-04-20T08:41:46;102031.63;;;7.39;71.04
43820;BME280;67762;52.476;6.046;2023-04-20T08:44:12;102030.59;;;7.52;71.64
43820;BME280;67762;52.476;6.046;2023-04-20T08:46:40;102028.56;;;7.56;70.61
43820;BME280;67762;52.476;6.046;2023-04-20T08:49:11;102025.09;;;7.66;71.41
43820;BME280;67762;52.476;6.046;2023-04-20T08:51:38;102035.78;;;7.89;71.36
43820;BME280;67762;52.476;6.046;2023-04-20T08:54:05;102017.59;;;8.06;70.65
43820;BME280;67762;52.476;6.046;2023-04-20T08:56:42;102019.41;;;8.17;69.47
43820;BME280;67762;52.476;6.046;2023-04-20T08:59:08;102024.28;;;8.56;70.08
43820;BME280;67762;52.476;6.046;2023-04-20T09:01:42;102025.53;;;9.06;69.50
43820;BME280;67762;52.476;6.046;2023-04-20T09:04:18;102021.38;;;9.45;69.52
43820;BME280;67762;52.476;6.046;2023-04-20T09:06:45;102038.84;;;9.70;68.69
43820;BME280;67762;52.476;6.046;2023-04-20T09:09:11;102029.09;;;9.80;68.14
43820;BME280;67762;52.476;6.046;2023-04-20T09:11:37;102028.72;;;9.53;67.25
43820;BME280;67762;52.476;6.046;2023-04-20T09:14:04;102019.47;;;9.36;66.86
43820;BME280;67762;52.476;6.046;2023-04-20T09:16:31;102031.97;;;9.35;66.76
43820;BME280;67762;52.476;6.046;2023-04-20T09:18:57;102015.94;;;9.67;67.04
43820;BME280;67762;52.476;6.046;2023-04-20T09:21:24;102025.81;;;9.97;66.63
43820;BME280;67762;52.476;6.046;2023-04-20T09:24:10;102017.94;;;10.37;66.29
43820;BME280;67762;52.476;6.046;2023-04-20T09:26:35;102018.84;;;10.56;65.72
43820;BME280;67762;52.476;6.046;2023-04-20T09:29:02;102018.25;;;11.02;65.94
43820;BME280;67762;52.476;6.046;2023-04-20T09:31:28;102011.56;;;11.37;64.66
43820;BME280;67762;52.476;6.046;2023-04-20T09:33:57;102007.47;;;11.23;62.74
43820;BME280;67762;52.476;6.046;2023-04-20T09:36:23;102005.78;;;11.70;62.45
43820;BME280;67762;52.476;6.046;2023-04-20T09:39:08;102010.28;;;11.79;61.60
43820;BME280;67762;52.476;6.046;2023-04-20T09:41:35;102004.09;;;11.69;61.39
43820;BME280;67762;52.476;6.046;2023-04-20T09:44:01;102003.97;;;11.51;60.41
43820;BME280;67762;52.476;6.046;2023-04-20T09:46:28;101998.91;;;11.48;60.19
43820;BME280;67762;52.476;6.046;2023-04-20T09:48:58;102004.09;;;11.59;60.48
43820;BME280;67762;52.476;6.046;2023-04-20T09:51:29;101986.09;;;11.52;60.70
43820;BME280;67762;52.476;6.046;2023-04-20T09:53:57;101983.28;;;11.44;60.60
43820;BME280;67762;52.476;6.046;2023-04-20T09:56:24;101986.63;;;11.84;59.77
43820;BME280;67762;52.476;6.046;2023-04-20T09:58:51;101987.25;;;12.15;59.41
43820;BME280;67762;52.476;6.046;2023-04-20T10:01:17;101990.72;;;12.25;57.75
43820;BME280;67762;52.476;6.046;2023-04-20T10:03:43;101999.28;;;12.01;57.66
43820;BME280;67762;52.476;6.046;2023-04-20T10:06:23;101987.94;;;11.70;56.99
43820;BME280;67762;52.476;6.046;2023-04-20T10:08:52;101987.06;;;11.60;57.74
43820;BME280;67762;52.476;6.046;2023-04-20T10:13:58;101974.81;;;11.67;58.81
43820;BME280;67762;52.476;6.046;2023-04-20T10:16:25;101965.53;;;11.81;58.87
43820;BME280;67762;52.476;6.046;2023-04-20T10:19:02;101968.34;;;11.80;58.59
43820;BME280;67762;52.476;6.046;2023-04-20T10:21:29;101961.88;;;11.53;58.39
43820;BME280;67762;52.476;6.046;2023-04-20T10:23:57;101972.59;;;11.34;58.21
43820;BME280;67762;52.476;6.046;2023-04-20T10:26:36;101968.66;;;11.57;58.65
43820;BME280;67762;52.476;6.046;2023-04-20T10:29:25;101967.09;;;11.74;59.26
43820;BME280;67762;52.476;6.046;2023-04-20T10:31:51;101966.50;;;11.80;58.58
43820;BME280;67762;52.476;6.046;2023-04-20T10:34:35;101946.00;;;11.71;58.67
43820;BME280;67762;52.476;6.046;2023-04-20T10:37:11;101953.59;;;11.37;58.12
43820;BME280;67762;52.476;6.046;2023-04-20T10:39:44;101943.59;;;11.58;59.13
43820;BME280;67762;52.476;6.046;2023-04-20T10:42:10;101940.25;;;12.03;58.93
43820;BME280;67762;52.476;6.046;2023-04-20T10:44:46;101934.56;;;11.88;58.94
43820;BME280;67762;52.476;6.046;2023-04-20T10:47:16;101937.38;;;11.67;58.56
43820;BME280;67762;52.476;6.046;2023-04-20T10:49:42;101936.28;;;11.51;58.22
43820;BME280;67762;52.476;6.046;2023-04-20T10:52:09;101932.53;;;11.44;57.99
43820;BME280;67762;52.476;6.046;2023-04-20T10:54:39;101939.44;;;11.27;57.76
43820;BME280;67762;52.476;6.046;2023-04-20T10:57:05;101924.94;;;11.10;58.07
43820;BME280;67762;52.476;6.046;2023-04-20T10:59:31;101930.72;;;10.96;59.21
43820;BME280;67762;52.476;6.046;2023-04-20T11:01:59;101932.97;;;11.10;58.50
43820;BME280;67762;52.476;6.046;2023-04-20T11:04:30;101925.16;;;11.55;59.36
43820;BME280;67762;52.476;6.046;2023-04-20T11:07:06;101923.28;;;11.85;58.90
43820;BME280;67762;52.476;6.046;2023-04-20T11:09:33;101924.50;;;12.00;58.57
43820;BME280;67762;52.476;6.046;2023-04-20T11:12:05;101924.47;;;12.09;57.88
43820;BME280;67762;52.476;6.046;2023-04-20T11:14:32;101922.66;;;12.10;56.53
43820;BME280;67762;52.476;6.046;2023-04-20T11:16:58;101914.44;;;11.74;57.08
43820;BME280;67762;52.476;6.046;2023-04-20T11:19:33;101927.81;;;11.65;57.18
43820;BME280;67762;52.476;6.046;2023-04-20T11:22:00;101925.59;;;11.60;56.65
43820;BME280;67762;52.476;6.046;2023-04-20T11:24:28;101925.59;;;11.51;56.84
43820;BME280;67762;52.476;6.046;2023-04-20T11:26:55;101915.88;;;11.59;57.00
43820;BME280;67762;52.476;6.046;2023-04-20T11:29:38;101909.09;;;11.74;57.67
43820;BME280;67762;52.476;6.046;2023-04-20T11:32:06;101921.34;;;11.67;56.56
43820;BME280;67762;52.476;6.046;2023-04-20T11:34:33;101917.13;;;11.74;57.46
43820;BME280;67762;52.476;6.046;2023-04-20T11:37:06;101911.47;;;11.78;56.84
43820;BME280;67762;52.476;6.046;2023-04-20T11:39:33;101907.81;;;11.88;56.36
43820;BME280;67762;52.476;6.046;2023-04-20T11:41:58;101906.69;;;11.81;56.28
43820;BME280;67762;52.476;6.046;2023-04-20T11:44:25;101897.50;;;11.93;56.04
43820;BME280;67762;52.476;6.046;2023-04-20T11:46:52;101901.75;;;11.86;55.74
43820;BME280;67762;52.476;6.046;2023-04-20T11:49:19;101899.25;;;11.75;57.05
43820;BME280;67762;52.476;6.046;2023-04-20T11:51:46;101902.09;;;11.73;56.39
43820;BME280;67762;52.476;6.046;2023-04-20T11:54:12;101884.75;;;11.68;57.01
43820;BME280;67762;52.476;6.046;2023-04-20T11:56:40;101889.69;;;11.72;57.35
43820;BME280;67762;52.476;6.046;2023-04-20T11:59:10;101904.94;;;11.99;57.12
43820;BME280;67762;52.476;6.046;2023-04-20T12:01:36;101897.97;;;12.16;56.70
43820;BME280;67762;52.476;6.046;2023-04-20T12:04:03;101888.34;;;12.23;56.21
43820;BME280;67762;52.476;6.046;2023-04-20T12:06:29;101899.09;;;12.41;55.83
43820;BME280;67762;52.476;6.046;2023-04-20T12:08:56;101901.50;;;12.44;55.83
43820;BME280;67762;52.476;6.046;2023-04-20T12:11:22;101897.75;;;12.54;55.27
43820;BME280;67762;52.476;6.046;2023-04-20T12:13:49;101905.88;;;12.80;55.48
43820;BME280;67762;52.476;6.046;2023-04-20T12:16:15;101891.66;;;12.79;54.95
43820;BME280;67762;52.476;6.046;2023-04-20T12:18:41;101882.91;;;12.77;55.13
43820;BME280;67762;52.476;6.046;2023-04-20T12:21:07;101903.28;;;12.70;55.11
43820;BME280;67762;52.476;6.046;2023-04-20T12:23:33;101898.06;;;12.86;54.42
43820;BME280;67762;52.476;6.046;2023-04-20T12:26:02;101890.72;;;12.71;54.01
43820;BME280;67762;52.476;6.046;2023-04-20T12:28:29;101888.88;;;12.54;53.65
43820;BME280;67762;52.476;6.046;2023-04-20T12:30:55;101874.31;;;12.39;54.51
43820;BME280;67762;52.476;6.046;2023-04-20T12:33:21;101896.13;;;12.16;53.94
43820;BME280;67762;52.476;6.046;2023-04-20T12:35:46;101886.31;;;12.07;54.96
43820;BME280;67762;52.476;6.046;2023-04-20T12:38:12;101891.72;;;12.25;53.92
43820;BME280;67762;52.476;6.046;2023-04-20T12:40:38;101890.44;;;12.47;54.46
43820;BME280;67762;52.476;6.046;2023-04-20T12:43:04;101881.91;;;12.78;54.46
43820;BME280;67762;52.476;6.046;2023-04-20T12:45:29;101888.13;;;12.97;53.00
43820;BME280;67762;52.476;6.046;2023-04-20T12:47:56;101888.81;;;12.99;52.64
43820;BME280;67762;52.476;6.046;2023-04-20T12:50:23;101894.25;;;13.07;51.83
43820;BME280;67762;52.476;6.046;2023-04-20T12:52:49;101886.91;;;13.26;51.37
43820;BME280;67762;52.476;6.046;2023-04-20T12:55:17;101883.31;;;13.18;51.09
43820;BME280;67762;52.476;6.046;2023-04-20T12:57:43;101888.97;;;13.15;51.10
43820;BME280;67762;52.476;6.046;2023-04-20T13:00:09;101891.97;;;13.12;50.76
43820;BME280;67762;52.476;6.046;2023-04-20T13:02:38;101887.03;;;13.25;50.42